Time;durP1;ratioP1;P1;durP2;ratioP2;P2;SDS_P1;SDS_P2;PMS_P1;PMS_P2;Temp;Humidity;BMP_temperature;BMP_pressure;BME280_temperature;BME280_humidity;BME280_pressure;Samples;Min_cycle;Max_cycle;Signal;HPM_P1;HPM_P2
2022/02/02 00:00:16;;;;;;;1.83;1.20;;;7.90;4.10;;;;;;5057005;28;20487;-80
2022/02/02 00:02:48;;;;;;;1.70;1.10;;;8.00;99.90;;;;;;5046808;28;20534;-80
2022/02/02 00:05:23;;;;;;;1.50;1.40;;;8.10;1.00;;;;;;5063318;28;20834;-82
2022/02/02 00:07:58;;;;;;;0.80;0.80;;;8.10;99.90;;;;;;5044780;28;20485;-81
2022/02/02 00:10:56;;;;;;;1.40;0.90;;;8.10;99.90;;;;;;5050611;28;20466;-81
2022/02/02 00:13:38;;;;;;;0.93;0.77;;;8.20;1.00;;;;;;5047879;28;20451;-81
2022/02/02 00:16:14;;;;;;;0.77;0.77;;;8.20;1.00;;;;;;5055744;28;20459;-82
2022/02/02 00:18:54;;;;;;;1.70;0.70;;;8.10;1.00;;;;;;5055558;28;20567;-81
2022/02/02 00:21:27;;;;;;;0.70;0.70;;;8.20;1.00;;;;;;5059358;28;20444;-81
2022/02/02 00:24:01;;;;;;;0.67;0.67;;;8.20;99.90;;;;;;5044394;28;20613;-79
2022/02/02 00:26:37;;;;;;;2.07;0.80;;;8.30;99.90;;;;;;5047214;28;20468;-80
2022/02/02 00:29:10;;;;;;;0.60;0.60;;;8.30;99.90;;;;;;5048731;28;20491;-80
2022/02/02 00:31:43;;;;;;;0.60;0.60;;;8.30;99.90;;;;;;5049200;28;21002;-80
2022/02/02 00:34:16;;;;;;;1.17;0.50;;;8.30;67.20;;;;;;5050904;28;20446;-81
2022/02/02 00:36:48;;;;;;;1.17;0.60;;;8.30;5.50;;;;;;5048284;28;20450;-81
2022/02/02 00:39:17;;;;;;;0.50;0.50;;;8.30;1.00;;;;;;5048328;28;20478;-81
2022/02/02 00:41:46;;;;;;;0.70;0.60;;;8.40;1.00;;;;;;5049365;28;20442;-81
2022/02/02 00:44:17;;;;;;;0.50;0.50;;;8.40;1.00;;;;;;5049819;28;20956;-81
2022/02/02 00:46:46;;;;;;;2.20;0.60;;;8.40;1.00;;;;;;5048058;28;20461;-81
2022/02/02 00:49:14;;;;;;;0.57;0.57;;;8.30;1.00;;;;;;5047768;28;20476;-79
2022/02/02 00:51:45;;;;;;;0.70;0.70;;;8.30;1.20;;;;;;5046739;28;20473;-80
2022/02/02 00:54:15;;;;;;;2.50;0.90;;;8.40;1.00;;;;;;5047331;28;21032;-79
2022/02/02 00:56:45;;;;;;;0.70;0.70;;;8.40;1.00;;;;;;5045392;28;20462;-80
2022/02/02 00:59:14;;;;;;;0.97;0.60;;;8.40;1.00;;;;;;5046417;28;20474;-79
2022/02/02 01:01:43;;;;;;;1.33;0.80;;;8.50;1.00;;;;;;5048007;28;20465;-80
2022/02/02 01:04:11;;;;;;;1.63;0.93;;;8.50;1.00;;;;;;5069721;28;20454;-79
2022/02/02 01:06:44;;;;;;;1.13;0.87;;;8.50;1.00;;;;;;5062917;28;20511;-79
2022/02/02 01:09:19;;;;;;;1.63;1.20;;;8.50;99.90;;;;;;5046832;28;20478;-79
2022/02/02 01:17:58;;;;;;;0.80;0.70;;;8.60;99.90;;;;;;5049783;28;20477;-80
2022/02/02 01:20:35;;;;;;;0.97;0.47;;;8.50;99.90;;;;;;5053775;28;20458;-81
2022/02/02 01:28:40;;;;;;;0.80;0.70;;;8.60;99.90;;;;;;5056727;28;20479;-81
2022/02/02 01:31:11;;;;;;;1.50;0.80;;;8.60;98.70;;;;;;5054707;28;20469;-81
2022/02/02 01:33:40;;;;;;;0.80;0.70;;;8.60;99.90;;;;;;5059553;28;20454;-80
2022/02/02 01:36:09;;;;;;;1.37;0.60;;;8.60;99.90;;;;;;5053729;28;20448;-81
2022/02/02 01:38:37;;;;;;;0.67;0.60;;;8.60;99.90;;;;;;5051992;28;20841;-81
2022/02/02 01:41:10;;;;;;;1.73;0.77;;;8.60;99.90;;;;;;5057812;28;20458;-81
2022/02/02 01:43:45;;;;;;;0.70;0.70;;;8.60;99.90;;;;;;5058855;28;20551;-81
2022/02/02 01:46:17;;;;;;;0.70;0.63;;;8.70;99.90;;;;;;5066341;28;20696;-82
2022/02/02 01:48:52;;;;;;;1.47;0.67;;;8.70;99.90;;;;;;5054337;28;20479;-81
2022/02/02 01:51:48;;;;;;;0.57;0.57;;;8.70;99.90;;;;;;5066297;28;21164;-82
2022/02/02 01:57:02;;;;;;;1.33;1.20;;;8.60;99.90;;;;;;5051745;28;20469;-81
2022/02/02 01:59:39;;;;;;;0.60;0.60;;;8.60;99.90;;;;;;5046887;28;20458;-80
2022/02/02 02:02:08;;;;;;;0.83;0.83;;;8.60;99.90;;;;;;5053104;28;20457;-81
2022/02/02 02:04:37;;;;;;;1.23;0.90;;;8.90;99.90;;;;;;5065405;28;21020;-80
2022/02/02 02:07:06;;;;;;;2.07;0.90;;;8.60;99.90;;;;;;5051290;28;20526;-81
2022/02/02 02:09:34;;;;;;;1.33;0.80;;;8.70;99.90;;;;;;5044350;28;20459;-80
2022/02/02 02:12:06;;;;;;;2.97;1.20;;;8.70;99.90;;;;;;5061172;28;20460;-81
2022/02/02 02:14:50;;;;;;;4.67;2.90;;;8.60;99.90;;;;;;5055954;28;20482;-81
2022/02/02 02:17:21;;;;;;;2.70;1.80;;;8.60;99.90;;;;;;5056034;28;20477;-81
2022/02/02 02:19:51;;;;;;;1.80;1.20;;;8.60;99.90;;;;;;5052080;28;20513;-81
2022/02/02 02:22:23;;;;;;;3.33;1.50;;;8.70;99.90;;;;;;5044533;28;20793;-81
2022/02/02 02:24:53;;;;;;;2.53;1.20;;;8.70;99.90;;;;;;5044353;28;20470;-80
2022/02/02 02:27:24;;;;;;;2.70;1.70;;;8.70;99.90;;;;;;5052622;28;20562;-81
2022/02/02 02:33:01;;;;;;;6.50;1.50;;;8.70;99.90;;;;;;5046343;28;20466;-81
2022/02/02 02:38:47;;;;;;;4.00;1.70;;;8.70;98.70;;;;;;5011480;28;20898;-81
2022/02/02 02:58:01;;;;;;;1.77;1.57;;;8.80;1.00;;;;;;5041355;28;20998;-81
2022/02/02 03:00:49;;;;;;;6.43;1.33;;;8.90;1.00;;;;;;5050213;28;20969;-80
2022/02/02 03:30:57;;;;;;;3.90;1.30;;;8.90;1.00;;;;;;5037895;28;20468;-82
2022/02/02 03:55:47;;;;;;;2.30;1.30;;;8.80;1.00;;;;;;5046002;28;20449;-82
2022/02/02 03:58:24;;;;;;;3.83;1.57;;;8.80;1.00;;;;;;5055688;28;20496;-81
2022/02/02 04:01:15;;;;;;;3.20;1.10;;;8.80;1.00;;;;;;5039567;28;20497;-81
2022/02/02 04:04:14;;;;;;;3.00;1.43;;;8.80;1.00;;;;;;5053019;28;20535;-80
2022/02/02 04:06:56;;;;;;;4.00;1.20;;;8.80;1.00;;;;;;5053715;28;20492;-82
2022/02/02 04:09:26;;;;;;;2.23;1.00;;;8.70;1.00;;;;;;5053471;28;20452;-81
2022/02/02 04:12:03;;;;;;;2.87;1.03;;;8.80;1.00;;;;;;5054703;28;20453;-81
2022/02/02 04:17:43;;;;;;;4.30;1.10;;;8.80;1.00;;;;;;5049038;28;22416;-81
2022/02/02 04:54:13;;;;;;;2.30;1.70;;;8.90;1.00;;;;;;5049995;28;20456;-81
2022/02/02 04:57:05;;;;;;;5.23;1.43;;;8.90;1.00;;;;;;5057661;28;20447;-81
2022/02/02 04:59:39;;;;;;;5.60;3.57;;;8.80;1.00;;;;;;5049093;28;20460;-82
2022/02/02 05:07:43;;;;;;;9.37;1.43;;;8.70;1.00;;;;;;5023497;28;20489;-82
2022/02/02 05:10:21;;;;;;;4.10;1.43;;;8.70;1.00;;;;;;5047683;28;20471;-82
2022/02/02 05:18:45;;;;;;;6.20;1.23;;;8.80;1.00;;;;;;5063822;28;20481;-81
2022/02/02 05:44:19;;;;;;;3.33;1.20;;;8.80;1.00;;;;;;4981503;28;20469;-80
2022/02/02 05:49:53;;;;;;;3.00;1.27;;;8.80;1.00;;;;;;5047044;28;20456;-79
2022/02/02 05:52:21;;;;;;;3.90;1.13;;;8.80;1.00;;;;;;5046769;28;20464;-79
2022/02/02 05:54:49;;;;;;;5.23;1.20;;;8.80;99.90;;;;;;5049544;28;20460;-79
2022/02/02 05:57:21;;;;;;;1.40;1.00;;;8.80;99.90;;;;;;5048055;28;20511;-80
2022/02/02 05:59:51;;;;;;;2.00;1.13;;;8.80;99.90;;;;;;5045115;28;20457;-80
2022/02/02 06:02:22;;;;;;;1.60;1.00;;;8.80;99.90;;;;;;5043309;28;21020;-80
2022/02/02 06:04:51;;;;;;;4.27;1.40;;;8.80;99.90;;;;;;5042730;28;20499;-80
2022/02/02 06:07:19;;;;;;;4.90;1.60;;;8.80;99.90;;;;;;5046946;28;20585;-80
2022/02/02 06:09:49;;;;;;;7.27;2.17;;;8.70;99.90;;;;;;5047950;28;20452;-80
2022/02/02 06:12:21;;;;;;;4.03;1.50;;;8.60;99.90;;;;;;5047148;28;20457;-81
2022/02/02 06:14:51;;;;;;;1.07;0.97;;;8.60;99.90;;;;;;5061952;28;20987;-80
2022/02/02 06:17:21;;;;;;;2.77;0.83;;;8.70;1.00;;;;;;5047540;28;20479;-79
2022/02/02 06:19:49;;;;;;;1.53;0.90;;;9.00;1.00;;;;;;5046898;28;20466;-80
2022/02/02 06:22:20;;;;;;;2.30;1.13;;;8.80;1.00;;;;;;5044605;28;20462;-80
2022/02/02 06:24:50;;;;;;;2.20;1.20;;;9.10;1.00;;;;;;5045919;28;20453;-79
2022/02/02 06:27:24;;;;;;;1.53;1.00;;;8.80;1.00;;;;;;5045305;28;20488;-79
2022/02/02 06:30:00;;;;;;;2.13;1.23;;;8.80;1.00;;;;;;5046942;28;20496;-80
2022/02/02 06:32:36;;;;;;;4.80;1.07;;;8.80;1.00;;;;;;5049921;28;20466;-80
2022/02/02 06:35:07;;;;;;;6.50;2.40;;;8.80;1.00;;;;;;5049708;28;20455;-79
2022/02/02 06:37:39;;;;;;;4.20;1.10;;;8.80;99.90;;;;;;5052428;28;20522;-80
2022/02/02 06:40:09;;;;;;;5.43;1.93;;;8.80;99.90;;;;;;5050222;28;20460;-81
2022/02/02 06:42:39;;;;;;;5.07;1.13;;;8.80;99.90;;;;;;5043799;28;20446;-80
2022/02/02 06:45:09;;;;;;;4.80;1.67;;;8.70;99.90;;;;;;5039690;28;20451;-80
2022/02/02 06:47:38;;;;;;;3.37;1.50;;;8.80;99.90;;;;;;5059504;28;20945;-80
2022/02/02 06:50:13;;;;;;;11.13;1.80;;;8.90;99.90;;;;;;5038445;28;20458;-82
2022/02/02 06:52:46;;;;;;;4.13;1.47;;;8.80;1.00;;;;;;5055693;28;21041;-79
2022/02/02 06:55:28;;;;;;;2.57;1.43;;;8.80;1.00;;;;;;5055367;28;20452;-80
2022/02/02 06:58:17;;;;;;;3.10;1.67;;;8.70;1.00;;;;;;5048811;28;20534;-80
2022/02/02 07:00:59;;;;;;;4.53;1.60;;;8.70;1.00;;;;;;5044804;28;20519;-80
2022/02/02 07:03:44;;;;;;;5.55;1.77;;;8.80;1.00;;;;;;5051149;28;20481;-80
2022/02/02 07:06:23;;;;;;;4.27;1.20;;;8.80;1.00;;;;;;5056503;28;20219;-80
2022/02/02 07:09:14;;;;;;;10.67;2.00;;;8.80;1.00;;;;;;5045636;28;21313;-79
2022/02/02 07:12:03;;;;;;;6.70;1.43;;;8.80;1.00;;;;;;5041681;28;20454;-80
2022/02/02 07:14:50;;;;;;;2.67;1.10;;;8.90;1.00;;;;;;5041439;28;20474;-80
2022/02/02 07:17:35;;;;;;;6.10;1.70;;;9.00;1.00;;;;;;5049265;28;20453;-80
2022/02/02 07:20:12;;;;;;;4.43;1.50;;;9.00;99.90;;;;;;5052556;28;20453;-80
2022/02/02 07:25:59;;;;;;;2.93;1.47;;;9.10;99.90;;;;;;5036425;28;20562;-81
2022/02/02 07:28:34;;;;;;;3.43;1.60;;;9.10;99.90;;;;;;5051048;28;20532;-80
2022/02/02 07:31:20;;;;;;;1.93;1.10;;;9.10;99.90;;;;;;5044454;28;21107;-80
2022/02/02 07:33:52;;;;;;;3.50;1.17;;;9.10;99.90;;;;;;5051867;28;20551;-81
2022/02/02 07:36:30;;;;;;;1.53;1.40;;;9.10;99.90;;;;;;5055416;28;20497;-80
2022/02/02 07:39:04;;;;;;;3.10;1.33;;;9.10;99.90;;;;;;5047732;28;20522;-80
2022/02/02 07:41:36;;;;;;;5.13;1.53;;;9.10;99.90;;;;;;5045952;28;20466;-80
2022/02/02 07:44:10;;;;;;;6.23;1.50;;;9.00;99.90;;;;;;5049586;28;20469;-79
2022/02/02 07:46:45;;;;;;;4.33;1.97;;;9.00;99.90;;;;;;5053344;28;20451;-81
2022/02/02 07:49:16;;;;;;;5.50;1.80;;;9.00;99.90;;;;;;5048520;28;20480;-80
2022/02/02 07:51:49;;;;;;;5.63;1.90;;;8.90;99.90;;;;;;5048073;28;20970;-80
2022/02/02 07:54:23;;;;;;;14.30;1.60;;;8.90;99.90;;;;;;5058278;28;20462;-80
2022/02/02 07:57:10;;;;;;;8.20;1.40;;;9.00;99.90;;;;;;5052184;28;20462;-79
2022/02/02 07:59:52;;;;;;;3.07;1.63;;;9.00;99.90;;;;;;5050337;28;20629;-80
2022/02/02 08:02:28;;;;;;;4.80;1.50;;;9.00;99.90;;;;;;5047338;28;20485;-79
2022/02/02 08:04:56;;;;;;;5.77;1.43;;;9.10;99.90;;;;;;5048705;28;20475;-79
2022/02/02 08:07:30;;;;;;;10.20;1.63;;;9.00;99.90;;;;;;5061720;28;20519;-79
2022/02/02 08:10:09;;;;;;;5.33;1.50;;;9.00;99.90;;;;;;5054446;28;20534;-80
2022/02/02 08:12:46;;;;;;;2.40;1.40;;;8.90;99.90;;;;;;5049939;28;20460;-81
2022/02/02 08:15:15;;;;;;;7.10;1.97;;;8.90;99.90;;;;;;5061974;28;20452;-80
2022/02/02 08:17:47;;;;;;;8.10;2.10;;;8.90;99.90;;;;;;5055759;28;20485;-79
2022/02/02 08:20:16;;;;;;;4.30;2.23;;;8.80;99.90;;;;;;5047787;28;20857;-79
2022/02/02 08:22:44;;;;;;;5.20;1.50;;;8.90;99.90;;;;;;5051191;28;20537;-79
2022/02/02 08:25:21;;;;;;;2.30;1.37;;;9.00;99.90;;;;;;5054189;28;20469;-80
2022/02/02 08:27:50;;;;;;;5.37;1.50;;;9.00;99.90;;;;;;5041412;28;20484;-79
2022/02/02 08:30:19;;;;;;;1.20;1.10;;;9.10;99.90;;;;;;5042439;28;21043;-79
2022/02/02 08:32:51;;;;;;;4.93;1.10;;;9.20;99.90;;;;;;5044702;28;20457;-80
2022/02/02 08:35:21;;;;;;;4.10;2.03;;;9.20;99.90;;;;;;5069089;28;20460;-80
2022/02/02 08:37:56;;;;;;;1.50;1.30;;;9.20;99.90;;;;;;5057945;28;20847;-80
2022/02/02 08:40:29;;;;;;;6.70;1.83;;;9.20;99.90;;;;;;5059074;28;20451;-79
2022/02/02 08:43:04;;;;;;;2.00;1.30;;;9.00;99.90;;;;;;5049579;28;20496;-80
2022/02/02 08:45:34;;;;;;;1.77;1.03;;;9.00;99.90;;;;;;5045243;28;20462;-80
2022/02/02 08:48:08;;;;;;;4.47;1.47;;;9.00;99.90;;;;;;5036194;28;20533;-80
2022/02/02 08:50:45;;;;;;;4.67;1.50;;;9.00;99.90;;;;;;5047725;28;20449;-80
2022/02/02 08:53:28;;;;;;;5.60;1.50;;;9.00;99.90;;;;;;5047977;28;20956;-80
2022/02/02 08:59:01;;;;;;;7.27;2.37;;;9.00;99.90;;;;;;5024985;28;21278;-80
2022/02/02 09:01:33;;;;;;;10.63;1.77;;;9.00;99.90;;;;;;5039400;28;20450;-80
2022/02/02 09:06:51;;;;;;;5.70;1.60;;;9.10;99.90;;;;;;5059906;28;20466;-80
2022/02/02 09:09:22;;;;;;;8.17;1.27;;;9.10;99.90;;;;;;5051888;28;20488;-80
2022/02/02 09:20:22;;;;;;;5.33;1.53;;;9.20;99.90;;;;;;5033118;28;20482;-80
2022/02/02 09:25:41;;;;;;;4.53;1.50;;;9.20;99.90;;;;;;5045682;28;20261;-84
2022/02/02 09:33:53;;;;;;;4.37;1.80;;;9.20;99.90;;;;;;5051416;28;20457;-81
2022/02/02 09:36:28;;;;;;;5.90;1.80;;;9.20;99.90;;;;;;5049106;28;20444;-80
2022/02/02 09:38:59;;;;;;;5.60;1.40;;;9.20;99.90;;;;;;5043570;28;20470;-80
2022/02/02 09:41:42;;;;;;;9.07;1.60;;;9.30;99.90;;;;;;5041066;28;20462;-80
2022/02/02 09:44:14;;;;;;;6.90;1.83;;;9.30;99.90;;;;;;5048299;28;20469;-80
2022/02/02 09:46:55;;;;;;;7.33;2.03;;;9.20;99.90;;;;;;5047037;28;20459;-81
2022/02/02 09:49:29;;;;;;;6.60;1.80;;;9.20;99.90;;;;;;5048165;28;20448;-81
2022/02/02 09:52:03;;;;;;;8.07;3.00;;;9.20;99.90;;;;;;5050522;28;20282;-82
2022/02/02 09:54:38;;;;;;;6.07;1.53;;;9.30;99.90;;;;;;5042294;28;20538;-81
2022/02/02 10:00:32;;;;;;;7.50;1.70;;;9.40;99.90;;;;;;5049895;28;20438;-82
2022/02/02 10:03:21;;;;;;;2.40;1.40;;;9.50;99.90;;;;;;5043143;28;20968;-80
2022/02/02 10:06:00;;;;;;;3.33;1.67;;;9.60;99.90;;;;;;5044257;28;20472;-80
2022/02/02 10:14:36;;;;;;;2.20;1.20;;;9.70;99.90;;;;;;5042591;28;20458;-80
2022/02/02 10:17:10;;;;;;;4.07;1.50;;;9.70;99.90;;;;;;5053068;28;20532;-81
2022/02/02 10:19:39;;;;;;;6.57;1.10;;;9.70;99.90;;;;;;5061220;28;20444;-81
2022/02/02 10:22:21;;;;;;;3.90;2.53;;;9.60;99.90;;;;;;5056105;28;20464;-80
2022/02/02 10:24:53;;;;;;;6.03;2.67;;;9.60;99.90;;;;;;5042647;28;20458;-81
2022/02/02 10:27:32;;;;;;;9.02;2.25;;;9.60;99.90;;;;;;5053826;28;20814;-80
2022/02/02 10:30:18;;;;;;;4.30;1.30;;;9.60;99.90;;;;;;5051831;28;20249;-81
2022/02/02 10:32:48;;;;;;;6.87;1.70;;;9.70;99.90;;;;;;5048954;28;20470;-80
2022/02/02 10:35:32;;;;;;;5.33;1.37;;;9.80;99.90;;;;;;5050305;28;20464;-84
2022/02/02 10:38:24;;;;;;;6.30;1.60;;;9.80;99.90;;;;;;5053532;28;20525;-80
2022/02/02 10:41:02;;;;;;;6.13;1.50;;;9.70;99.90;;;;;;5049595;28;20553;-79
2022/02/02 10:43:35;;;;;;;4.10;1.50;;;9.70;99.90;;;;;;5048741;28;21041;-80
2022/02/02 10:46:17;;;;;;;3.10;1.70;;;9.90;99.90;;;;;;5045855;28;20481;-81
2022/02/02 10:48:50;;;;;;;3.43;1.53;;;10.10;99.90;;;;;;5044643;28;20492;-80
2022/02/02 10:51:33;;;;;;;6.77;1.73;;;10.50;99.90;;;;;;5046874;28;21050;-80
2022/02/02 10:54:12;;;;;;;4.47;1.40;;;10.80;99.90;;;;;;5044311;28;20495;-80
2022/02/02 10:56:49;;;;;;;10.97;2.40;;;11.20;99.90;;;;;;5053665;28;20975;-82
2022/02/02 10:59:31;;;;;;;2.53;1.20;;;11.60;99.90;;;;;;5052479;28;20471;-82
2022/02/02 11:07:35;;;;;;;3.10;1.50;;;12.30;99.90;;;;;;5048092;28;20481;-80
2022/02/02 11:10:04;;;;;;;3.10;1.43;;;12.50;99.90;;;;;;5045971;28;20525;-82
2022/02/02 11:12:38;;;;;;;4.15;1.92;;;12.90;99.90;;;;;;5051295;28;20576;-81
2022/02/02 11:15:15;;;;;;;6.83;1.70;;;13.30;99.90;;;;;;5058911;28;20206;-81
2022/02/02 11:17:57;;;;;;;6.67;1.30;;;13.70;99.90;;;;;;5041935;28;20977;-81
2022/02/02 11:20:26;;;;;;;4.33;1.20;;;13.90;99.90;;;;;;5047407;28;20462;-82
2022/02/02 11:22:56;;;;;;;6.03;2.47;;;13.80;99.90;;;;;;5045519;28;20880;-82
2022/02/02 11:25:39;;;;;;;4.63;1.70;;;13.60;99.90;;;;;;5036490;28;20457;-83
2022/02/02 11:28:28;;;;;;;5.53;1.70;;;13.40;99.90;;;;;;5043695;28;20572;-81
2022/02/02 11:31:06;;;;;;;6.47;1.80;;;13.20;99.90;;;;;;5044770;28;20502;-82
2022/02/02 11:33:44;;;;;;;5.77;1.93;;;13.20;99.90;;;;;;5050726;28;20452;-82
2022/02/02 11:36:26;;;;;;;4.23;1.70;;;13.20;99.90;;;;;;5055460;28;20516;-82
2022/02/02 11:38:57;;;;;;;4.33;1.20;;;13.50;99.90;;;;;;5047428;28;20470;-82
2022/02/02 11:44:18;;;;;;;3.77;1.40;;;13.80;99.90;;;;;;5038585;28;20460;-81
2022/02/02 11:46:52;;;;;;;8.20;1.73;;;13.70;99.90;;;;;;5049268;28;20464;-82
2022/02/02 11:49:52;;;;;;;6.33;1.47;;;13.60;99.90;;;;;;5041127;28;20478;-81
2022/02/02 11:52:41;;;;;;;3.57;1.43;;;13.50;99.90;;;;;;5044484;28;20451;-81
2022/02/02 11:55:42;;;;;;;10.03;4.53;;;13.30;99.90;;;;;;5052457;28;20445;-81
2022/02/02 11:58:15;;;;;;;6.60;1.73;;;13.10;99.90;;;;;;5058127;28;20468;-83
2022/02/02 12:01:00;;;;;;;3.77;1.30;;;12.80;99.90;;;;;;5047396;28;20455;-82
2022/02/02 12:03:47;;;;;;;5.03;1.50;;;12.60;99.90;;;;;;5048510;28;20557;-82
2022/02/02 12:06:36;;;;;;;3.20;1.60;;;12.60;99.90;;;;;;5049227;28;20454;-81
2022/02/02 12:09:14;;;;;;;4.30;1.80;;;12.70;99.90;;;;;;5051194;28;20464;-81
2022/02/02 12:19:00;;;;;;;4.80;1.40;;;12.80;99.90;;;;;;5046278;28;20483;-81
2022/02/02 12:57:10;;;;;;;5.23;1.47;;;12.10;99.90;;;;;;5052314;28;20456;-82
2022/02/02 13:00:06;;;;;;;3.30;1.47;;;12.00;99.90;;;;;;5053631;28;20450;-82
2022/02/02 13:02:38;;;;;;;6.17;1.63;;;11.90;99.90;;;;;;5047816;28;20852;-81
2022/02/02 13:05:09;;;;;;;3.77;1.80;;;11.90;99.90;;;;;;5051474;28;20449;-83
2022/02/02 13:07:42;;;;;;;5.95;1.90;;;11.80;99.90;;;;;;5055025;28;20443;-83
2022/02/02 13:10:12;;;;;;;2.00;1.10;;;11.80;99.90;;;;;;5056103;28;21135;-82
2022/02/02 13:12:51;;;;;;;5.90;2.07;;;11.90;99.90;;;;;;5056896;28;20474;-82
2022/02/02 13:15:32;;;;;;;3.90;1.40;;;11.90;99.90;;;;;;5055396;28;21608;-81
2022/02/02 13:18:14;;;;;;;4.80;2.13;;;11.90;99.90;;;;;;5052358;28;20476;-83
2022/02/02 13:20:56;;;;;;;2.10;1.10;;;12.10;99.90;;;;;;5062172;28;20444;-81
2022/02/02 13:23:38;;;;;;;3.70;1.40;;;12.20;99.90;;;;;;5064678;28;20545;-81
2022/02/02 13:26:17;;;;;;;7.23;1.60;;;12.20;99.90;;;;;;5049004;28;20456;-80
2022/02/02 13:28:51;;;;;;;2.40;1.30;;;12.10;99.90;;;;;;5058357;28;20475;-80
2022/02/02 13:31:36;;;;;;;2.70;1.10;;;12.20;99.90;;;;;;5058508;28;20835;-81
2022/02/02 13:34:14;;;;;;;4.77;1.57;;;12.10;99.90;;;;;;5069518;28;20499;-81
2022/02/02 13:43:00;;;;;;;5.00;1.60;;;12.00;99.90;;;;;;5054444;28;20452;-82
2022/02/02 13:51:49;;;;;;;4.93;1.30;;;11.80;99.90;;;;;;5055777;28;21024;-82
2022/02/02 13:54:43;;;;;;;2.60;0.90;;;11.70;99.90;;;;;;5056539;28;20483;-82
2022/02/02 13:57:57;;;;;;;0.93;0.80;;;11.60;99.90;;;;;;5052341;28;20459;-82
2022/02/02 14:00:53;;;;;;;1.57;0.80;;;11.60;99.90;;;;;;5053802;28;20542;-82
2022/02/02 14:06:17;;;;;;;1.27;0.70;;;11.60;99.90;;;;;;5058090;28;20473;-83
2022/02/02 14:25:37;;;;;;;0.90;0.80;;;11.50;99.90;;;;;;5049770;28;20217;-82
2022/02/02 14:26:08;;;;;;;1.67;1.30;;;11.60;99.90;;;;;;5048174;28;20909;-82
2022/02/02 14:31:26;;;;;;;6.97;1.43;;;11.60;99.90;;;;;;5046807;28;20533;-81
2022/02/02 14:33:57;;;;;;;3.85;1.58;;;11.60;99.90;;;;;;5049640;28;20769;-82
2022/02/02 14:36:30;;;;;;;3.07;1.43;;;11.50;99.90;;;;;;5051036;28;20315;-83
2022/02/02 14:39:05;;;;;;;4.10;1.20;;;11.40;99.90;;;;;;5042375;28;20541;-82
2022/02/02 14:41:38;;;;;;;3.20;1.77;;;11.40;99.90;;;;;;5043751;28;20454;-82
2022/02/02 14:44:13;;;;;;;3.90;1.43;;;11.40;99.90;;;;;;5049834;28;20775;-83
2022/02/02 14:46:51;;;;;;;2.93;1.53;;;11.50;99.90;;;;;;5056594;28;20518;-84
2022/02/02 14:49:25;;;;;;;1.57;1.13;;;11.40;99.90;;;;;;5069901;28;20480;-82
2022/02/02 14:52:02;;;;;;;6.77;1.00;;;11.40;99.90;;;;;;5044511;28;20478;-81
2022/02/02 15:06:09;;;;;;;3.70;1.13;;;11.30;99.90;;;;;;5048324;28;20504;-82
2022/02/02 15:28:33;;;;;;;0.80;0.70;;;11.20;99.90;;;;;;4987752;28;20467;-82
2022/02/02 15:31:04;;;;;;;3.07;0.80;;;11.30;99.90;;;;;;5048271;28;20444;-83
2022/02/02 15:33:33;;;;;;;1.90;0.80;;;11.30;99.90;;;;;;5045167;28;20461;-83
2022/02/02 15:36:32;;;;;;;0.97;0.70;;;11.30;99.90;;;;;;5051354;28;20828;-82
2022/02/02 15:39:06;;;;;;;0.80;0.80;;;11.40;99.90;;;;;;5044295;28;20475;-82
2022/02/02 15:41:43;;;;;;;2.83;0.90;;;11.60;99.90;;;;;;5046160;28;20515;-82
2022/02/02 15:55:42;;;;;;;1.70;1.00;;;11.30;99.90;;;;;;5046545;28;20896;-82
2022/02/02 15:58:13;;;;;;;1.70;1.10;;;11.30;99.90;;;;;;5048510;28;21069;-83
2022/02/02 16:03:30;;;;;;;1.80;1.00;;;11.30;99.90;;;;;;5063730;28;20542;-83
2022/02/02 16:06:05;;;;;;;2.27;2.17;;;11.20;99.90;;;;;;5043183;28;20467;-81
2022/02/02 16:08:37;;;;;;;1.47;0.80;;;11.20;99.90;;;;;;5042296;28;20501;-81
2022/02/02 16:11:16;;;;;;;0.80;0.80;;;11.20;99.90;;;;;;5052537;28;20547;-82
2022/02/02 16:13:47;;;;;;;2.03;1.07;;;11.20;99.90;;;;;;5051016;28;21066;-80
2022/02/02 16:16:37;;;;;;;4.00;1.00;;;11.20;99.90;;;;;;5050469;28;20705;-81
2022/02/02 16:19:14;;;;;;;1.57;1.10;;;11.20;99.90;;;;;;5046158;28;20474;-81
2022/02/02 16:25:03;;;;;;;6.23;1.30;;;11.20;99.90;;;;;;5050817;28;20988;-80
2022/02/02 16:36:10;;;;;;;2.00;0.90;;;11.20;99.90;;;;;;5012029;28;20454;-81
2022/02/02 16:38:45;;;;;;;2.17;1.20;;;11.20;99.90;;;;;;5050168;28;20482;-80
2022/02/02 16:43:57;;;;;;;2.00;1.50;;;11.10;99.90;;;;;;5045595;28;20471;-80
2022/02/02 16:46:25;;;;;;;2.10;1.20;;;11.20;99.90;;;;;;5048246;28;20898;-80
2022/02/02 16:48:53;;;;;;;1.67;1.10;;;11.20;99.90;;;;;;5046892;28;20471;-80
2022/02/02 16:51:22;;;;;;;1.17;1.00;;;11.20;99.90;;;;;;5054512;28;21280;-80
2022/02/02 16:53:53;;;;;;;1.80;0.97;;;11.20;99.90;;;;;;5061061;28;20587;-82
2022/02/02 16:56:31;;;;;;;1.40;1.20;;;11.20;99.90;;;;;;5051476;28;20451;-80
2022/02/02 17:24:43;;;;;;;1.33;0.70;;;11.10;99.90;;;;;;5046752;28;20452;-79
2022/02/02 17:32:50;;;;;;;1.00;0.80;;;11.10;99.90;;;;;;5048616;28;20498;-80
2022/02/02 17:35:33;;;;;;;2.23;1.00;;;11.10;99.90;;;;;;5054238;28;20451;-80
2022/02/02 17:38:09;;;;;;;0.80;0.70;;;11.00;99.90;;;;;;5046286;28;21014;-80
2022/02/02 17:44:02;;;;;;;1.90;1.47;;;11.00;99.90;;;;;;5053446;28;20450;-80
2022/02/02 18:20:00;;;;;;;2.07;1.27;;;10.80;99.90;;;;;;5044735;28;20448;-80
2022/02/02 18:22:35;;;;;;;2.10;1.40;;;10.80;99.90;;;;;;5042808;28;20438;-80
2022/02/02 18:25:10;;;;;;;1.50;1.10;;;10.90;99.90;;;;;;5041404;28;20455;-79
2022/02/02 18:27:46;;;;;;;3.30;1.97;;;10.80;99.90;;;;;;5047487;28;20485;-79
2022/02/02 18:30:31;;;;;;;1.40;1.30;;;10.80;99.90;;;;;;5044955;28;20458;-80
2022/02/02 18:33:14;;;;;;;1.83;1.73;;;10.80;99.90;;;;;;5041425;28;20475;-80
2022/02/02 18:35:49;;;;;;;2.30;2.10;;;10.70;99.90;;;;;;5043267;28;20456;-79
2022/02/02 18:44:18;;;;;;;1.60;1.50;;;10.60;99.90;;;;;;5013662;28;20463;-79
2022/02/02 18:49:30;;;;;;;2.57;1.80;;;10.60;99.90;;;;;;5044980;28;21060;-80
2022/02/02 18:52:35;;;;;;;2.27;2.00;;;10.50;99.90;;;;;;5046851;28;20483;-80
2022/02/02 18:55:08;;;;;;;3.33;1.60;;;10.50;99.90;;;;;;5060780;28;20474;-80
2022/02/02 18:57:48;;;;;;;2.80;1.57;;;10.50;99.90;;;;;;5041830;28;20858;-80
2022/02/02 19:06:21;;;;;;;2.60;1.60;;;10.60;99.90;;;;;;5040451;28;20502;-80
2022/02/02 19:55:59;;;;;;;3.50;3.20;;;10.30;1.00;;;;;;5008661;28;20505;-79
2022/02/02 20:04:32;;;;;;;4.70;4.27;;;10.00;1.00;;;;;;5052192;28;20455;-78
2022/02/02 20:07:09;;;;;;;4.70;3.50;;;10.00;1.00;;;;;;5047420;28;20466;-79
2022/02/02 20:12:24;;;;;;;3.20;2.70;;;10.10;1.00;;;;;;5046853;28;20460;-80
2022/02/02 20:14:55;;;;;;;5.00;4.30;;;10.00;1.00;;;;;;5049340;28;20479;-80
2022/02/02 20:17:25;;;;;;;3.13;2.50;;;9.90;1.00;;;;;;5049934;28;20493;-80
2022/02/02 20:19:57;;;;;;;3.03;2.83;;;9.80;1.00;;;;;;5047424;28;20842;-80
2022/02/02 20:22:29;;;;;;;3.53;3.23;;;9.90;6.90;;;;;;5051423;28;20499;-81
2022/02/02 20:24:59;;;;;;;2.87;2.53;;;9.90;1.00;;;;;;5051999;28;20539;-80
2022/02/02 20:27:30;;;;;;;5.67;2.80;;;10.00;1.00;;;;;;5050893;28;20518;-80
2022/02/02 20:30:01;;;;;;;3.30;2.40;;;10.10;1.00;;;;;;5054448;28;20869;-81
2022/02/02 20:32:29;;;;;;;2.20;1.90;;;10.10;1.00;;;;;;5048770;28;20477;-81
2022/02/02 20:34:57;;;;;;;3.73;2.20;;;10.20;1.00;;;;;;5048515;28;20488;-81
2022/02/02 20:37:28;;;;;;;3.67;2.17;;;10.20;1.00;;;;;;5052703;28;20477;-79
2022/02/02 20:39:59;;;;;;;2.47;2.27;;;10.20;1.00;;;;;;5052761;28;20454;-81
2022/02/02 20:42:35;;;;;;;5.57;2.20;;;10.20;1.00;;;;;;5051342;28;20453;-81
2022/02/02 21:05:07;;;;;;;2.80;2.10;;;10.30;1.00;;;;;;5044030;28;20952;-79
2022/02/02 21:07:52;;;;;;;3.25;2.65;;;10.20;21.40;;;;;;5048031;28;20434;-78
2022/02/02 21:10:24;;;;;;;3.27;2.97;;;10.20;99.90;;;;;;5055685;28;20204;-78
2022/02/02 21:15:40;;;;;;;2.63;1.97;;;10.20;99.90;;;;;;5048589;28;20512;-81
2022/02/02 21:18:13;;;;;;;3.03;2.00;;;10.20;99.90;;;;;;5051968;28;20498;-80
2022/02/02 21:20:50;;;;;;;1.73;1.43;;;10.30;95.20;;;;;;5053731;28;20831;-81
2022/02/02 21:23:38;;;;;;;3.27;2.00;;;10.30;99.90;;;;;;5051285;28;20451;-80
2022/02/02 21:26:22;;;;;;;2.03;1.50;;;10.20;99.90;;;;;;5052023;28;20499;-81
2022/02/02 21:28:50;;;;;;;1.90;1.80;;;10.20;99.90;;;;;;5054054;28;20482;-81
2022/02/02 21:31:19;;;;;;;4.30;2.50;;;10.30;99.90;;;;;;5052742;28;20455;-81
2022/02/02 21:33:50;;;;;;;2.53;2.27;;;10.30;99.90;;;;;;5050557;28;20478;-80
2022/02/02 21:36:18;;;;;;;2.83;2.50;;;10.20;99.90;;;;;;5052382;28;20454;-81
2022/02/02 21:38:57;;;;;;;5.03;2.77;;;10.20;99.90;;;;;;5041377;28;20475;-80
2022/02/02 21:41:32;;;;;;;5.20;3.70;;;10.20;99.90;;;;;;5062128;28;20519;-82
2022/02/02 21:44:01;;;;;;;3.70;3.10;;;10.20;99.90;;;;;;5050856;28;20452;-80
2022/02/02 21:46:30;;;;;;;3.37;3.00;;;10.20;99.90;;;;;;5060404;28;20462;-80
2022/02/02 21:49:01;;;;;;;3.30;2.03;;;10.10;99.90;;;;;;5048982;28;20569;-81
2022/02/02 21:51:36;;;;;;;2.23;1.53;;;10.00;99.90;;;;;;5059819;28;20454;-81
2022/02/02 21:54:04;;;;;;;2.07;1.87;;;10.10;99.90;;;;;;5044687;28;20475;-81
2022/02/02 21:56:33;;;;;;;1.63;1.53;;;10.00;99.90;;;;;;5045613;28;20460;-80
2022/02/02 21:59:02;;;;;;;1.87;1.50;;;10.00;99.90;;;;;;5051431;28;20471;-81